Time,TemperatureF,DewpointF,PressureIn,WindDirection,WindDirectionDegrees,WindSpeedMPH,WindSpeedGustMPH,Humidity,HourlyPrecipIn,Conditions,Clouds,dailyrainin,SoftwareType,DateUTC
2017-12-10 00:00:00,15.3,10.8,30.00,West,263,6.0,7.0,82,0.00,,---,0.00,VWS V15.00,2017-12-10 06:00:00,
2017-12-10 00:05:00,15.4,10.9,30.00,WSW,256,8.0,9.0,82,0.00,,---,0.00,VWS V15.00,2017-12-10 06:05:00,
2017-12-10 00:16:00,15.6,10.8,29.99,WSW,258,8.0,8.0,81,0.00,,---,0.00,VWS V15.00,2017-12-10 06:16:00,
2017-12-10 00:21:00,15.7,10.9,29.99,West,271,8.0,8.0,81,0.00,,---,0.00,VWS V15.00,2017-12-10 06:21:00,
2017-12-10 00:26:00,15.8,11.0,29.99,West,264,4.0,6.0,81,0.00,,---,0.00,VWS V15.00,2017-12-10 06:26:00,
2017-12-10 00:31:00,15.8,11.0,29.99,WSW,251,0.0,4.0,81,0.00,,---,0.00,VWS V15.00,2017-12-10 06:31:00,
2017-12-10 00:36:00,15.8,11.0,29.99,West,267,6.0,6.0,81,0.00,,---,0.00,VWS V15.00,2017-12-10 06:36:00,
2017-12-10 00:41:00,15.9,11.1,29.98,WSW,246,4.0,4.0,81,0.00,,---,0.00,VWS V15.00,2017-12-10 06:41:00,
2017-12-10 00:46:00,15.9,11.1,29.98,WSW,248,7.0,9.0,81,0.00,,---,0.00,VWS V15.00,2017-12-10 06:46:00,
2017-12-10 00:56:00,16.0,11.2,29.98,West,259,4.0,4.0,81,0.00,,---,0.00,VWS V15.00,2017-12-10 06:56:00,
2017-12-10 01:01:00,16.1,11.0,29.98,West,270,6.0,7.0,80,0.00,,---,0.00,VWS V15.00,2017-12-10 07:01:00,
2017-12-10 01:06:00,16.1,11.0,29.97,SW,236,0.0,2.0,80,0.00,,---,0.00,VWS V15.00,2017-12-10 07:06:00,
2017-12-10 01:11:00,16.2,11.1,29.97,West,261,3.0,4.0,80,0.00,,---,0.00,VWS V15.00,2017-12-10 07:11:00,
2017-12-10 01:21:00,16.2,11.1,29.96,SW,220,6.0,6.0,80,0.00,,---,0.00,VWS V15.00,2017-12-10 07:21:00,
2017-12-10 01:26:00,16.3,11.2,29.96,WSW,248,4.0,8.0,80,0.00,,---,0.00,VWS V15.00,2017-12-10 07:26:00,
2017-12-10 01:31:00,16.3,11.2,29.96,SW,226,5.0,7.0,80,0.00,,---,0.00,VWS V15.00,2017-12-10 07:31:00,
2017-12-10 01:36:00,16.4,11.3,29.95,West,259,1.0,1.0,80,0.00,,---,0.00,VWS V15.00,2017-12-10 07:36:00,
2017-12-10 01:41:00,16.4,11.3,29.95,West,267,4.0,10.0,80,0.00,,---,0.00,VWS V15.00,2017-12-10 07:41:00,
2017-12-10 01:46:00,16.5,11.4,29.95,WSW,244,7.0,7.0,80,0.00,,---,0.00,VWS V15.00,2017-12-10 07:46:00,
2017-12-10 01:51:00,16.6,11.5,29.95,WSW,248,7.0,8.0,80,0.00,,---,0.00,VWS V15.00,2017-12-10 07:51:00,
2017-12-10 02:01:00,16.7,11.6,29.95,WSW,240,6.0,6.0,80,0.00,,---,0.00,VWS V15.00,2017-12-10 08:01:00,
2017-12-10 02:11:00,16.9,11.8,29.94,WSW,252,5.0,5.0,80,0.00,,---,0.00,VWS V15.00,2017-12-10 08:11:00,
2017-12-10 02:26:00,17.1,12.0,29.94,WSW,242,8.0,9.0,80,0.00,,---,0.00,VWS V15.00,2017-12-10 08:26:00,
2017-12-10 02:36:00,17.2,12.1,29.93,West,272,5.0,5.0,80,0.00,,---,0.00,VWS V15.00,2017-12-10 08:36:00,
2017-12-10 02:51:00,17.4,12.3,29.93,WSW,248,0.0,7.0,80,0.00,,---,0.00,VWS V15.00,2017-12-10 08:51:00,
2017-12-10 02:56:00,17.5,12.4,29.92,SW,234,7.0,7.0,80,0.00,,---,0.00,VWS V15.00,2017-12-10 08:56:00,
2017-12-10 03:01:00,17.5,12.4,29.92,SW,232,4.0,7.0,80,0.00,,---,0.00,VWS V15.00,2017-12-10 09:01:00,
2017-12-10 03:06:00,17.6,12.5,29.92,SW,225,2.0,5.0,80,0.00,,---,0.00,VWS V15.00,2017-12-10 09:06:00,
2017-12-10 03:11:00,17.7,12.6,29.92,WSW,237,2.0,4.0,80,0.00,,---,0.00,VWS V15.00,2017-12-10 09:11:00,
2017-12-10 03:16:00,17.7,12.6,29.92,SW,234,7.0,7.0,80,0.00,,---,0.00,VWS V15.00,2017-12-10 09:16:00,
2017-12-10 03:26:00,17.9,12.8,29.92,SW,236,3.0,3.0,80,0.00,,---,0.00,VWS V15.00,2017-12-10 09:26:00,
2017-12-10 03:36:00,18.1,13.0,29.92,SW,230,4.0,6.0,80,0.00,,---,0.00,VWS V15.00,2017-12-10 09:36:00,
2017-12-10 03:41:00,18.2,13.1,29.92,SW,225,8.0,10.0,80,0.00,,---,0.00,VWS V15.00,2017-12-10 09:41:00,
2017-12-10 03:46:00,18.2,13.1,29.92,SW,223,2.0,6.0,80,0.00,,---,0.00,VWS V15.00,2017-12-10 09:46:00,
2017-12-10 03:51:00,18.2,13.1,29.92,SW,223,6.0,6.0,80,0.00,,---,0.00,VWS V15.00,2017-12-10 09:51:00,
2017-12-10 03:56:00,18.3,13.2,29.91,SW,232,4.0,5.0,80,0.00,,---,0.00,VWS V15.00,2017-12-10 09:56:00,
2017-12-10 04:01:00,18.3,13.2,29.91,SW,227,2.0,2.0,80,0.00,,---,0.00,VWS V15.00,2017-12-10 10:01:00,
2017-12-10 04:06:00,18.3,13.2,29.91,SW,218,4.0,10.0,80,0.00,,---,0.00,VWS V15.00,2017-12-10 10:06:00,
2017-12-10 04:16:00,18.4,13.6,29.90,SW,232,11.0,12.0,81,0.00,,---,0.00,VWS V15.00,2017-12-10 10:16:00,
2017-12-10 04:21:00,18.4,13.6,29.90,SSW,205,7.0,8.0,81,0.00,,---,0.00,VWS V15.00,2017-12-10 10:21:00,
2017-12-10 04:26:00,18.4,13.6,29.89,SSW,208,8.0,9.0,81,0.00,,---,0.00,VWS V15.00,2017-12-10 10:26:00,
2017-12-10 04:31:00,18.5,13.6,29.89,SW,218,8.0,9.0,81,0.00,,---,0.00,VWS V15.00,2017-12-10 10:31:00,
2017-12-10 04:41:00,18.6,13.8,29.89,SW,221,7.0,9.0,81,0.00,,---,0.00,VWS V15.00,2017-12-10 10:41:00,
2017-12-10 04:46:00,18.7,14.1,29.89,SSW,207,4.0,9.0,82,0.00,,---,0.00,VWS V15.00,2017-12-10 10:46:00,
2017-12-10 04:51:00,18.8,14.2,29.89,SW,236,6.0,10.0,82,0.00,,---,0.00,VWS V15.00,2017-12-10 10:51:00,
2017-12-10 04:56:00,18.9,14.3,29.89,SW,234,2.0,8.0,82,0.00,,---,0.00,VWS V15.00,2017-12-10 10:56:00,
2017-12-10 05:01:00,19.0,14.4,29.89,West,259,6.0,7.0,82,0.00,,---,0.00,VWS V15.00,2017-12-10 11:01:00,
2017-12-10 05:06:00,19.1,14.5,29.89,West,259,7.0,11.0,82,0.00,,---,0.00,VWS V15.00,2017-12-10 11:06:00,
2017-12-10 05:11:00,19.2,14.6,29.89,SW,221,8.0,9.0,82,0.00,,---,0.00,VWS V15.00,2017-12-10 11:11:00,
2017-12-10 05:16:00,19.2,14.6,29.89,WSW,240,4.0,11.0,82,0.00,,---,0.00,VWS V15.00,2017-12-10 11:16:00,
2017-12-10 05:21:00,19.3,14.7,29.88,SW,214,5.0,8.0,82,0.00,,---,0.00,VWS V15.00,2017-12-10 11:21:00,
2017-12-10 05:26:00,19.4,14.8,29.88,WSW,238,8.0,9.0,82,0.00,,---,0.00,VWS V15.00,2017-12-10 11:26:00,
2017-12-10 05:31:00,19.5,14.9,29.89,SW,236,7.0,11.0,82,0.00,,---,0.00,VWS V15.00,2017-12-10 11:31:00,
2017-12-10 05:36:00,19.6,15.0,29.89,SW,229,7.0,8.0,82,0.00,,---,0.00,VWS V15.00,2017-12-10 11:36:00,
2017-12-10 05:41:00,19.7,15.1,29.88,WSW,242,5.0,5.0,82,0.00,,---,0.00,VWS V15.00,2017-12-10 11:41:00,
2017-12-10 05:46:00,19.8,15.2,29.89,WSW,239,3.0,11.0,82,0.00,,---,0.00,VWS V15.00,2017-12-10 11:46:00,
2017-12-10 05:51:00,19.9,15.3,29.89,WSW,242,0.0,9.0,82,0.00,,---,0.00,VWS V15.00,2017-12-10 11:51:00,
2017-12-10 05:56:00,20.0,15.4,29.88,SW,223,7.0,9.0,82,0.00,,---,0.00,VWS V15.00,2017-12-10 11:56:00,
2017-12-10 06:01:00,20.0,15.4,29.88,SW,228,5.0,9.0,82,0.00,,---,0.00,VWS V15.00,2017-12-10 12:01:00,
2017-12-10 06:06:00,20.1,15.8,29.88,WSW,241,8.0,8.0,83,0.00,,---,0.00,VWS V15.00,2017-12-10 12:06:00,
2017-12-10 06:10:00,20.1,15.8,29.88,WSW,248,8.0,8.0,83,0.00,,---,0.00,VWS V15.00,2017-12-10 12:10:00,
2017-12-10 06:15:00,20.2,15.9,29.89,SW,229,6.0,9.0,83,0.00,,---,0.00,VWS V15.00,2017-12-10 12:15:00,
2017-12-10 06:20:00,20.2,15.9,29.89,SSW,208,7.0,9.0,83,0.00,,---,0.00,VWS V15.00,2017-12-10 12:20:00,
2017-12-10 06:25:00,20.3,16.0,29.89,SW,216,7.0,7.0,83,0.00,,---,0.00,VWS V15.00,2017-12-10 12:25:00,
2017-12-10 06:30:00,20.3,16.0,29.89,SW,225,5.0,7.0,83,0.00,,---,0.00,VWS V15.00,2017-12-10 12:30:00,
2017-12-10 06:35:00,20.3,16.0,29.89,SW,230,6.0,8.0,83,0.00,,---,0.00,VWS V15.00,2017-12-10 12:35:00,
2017-12-10 06:50:00,20.5,16.2,29.89,WSW,244,1.0,8.0,83,0.00,,---,0.00,VWS V15.00,2017-12-10 12:50:00,
2017-12-10 06:55:00,20.5,16.2,29.89,WSW,252,4.0,5.0,83,0.00,,---,0.00,VWS V15.00,2017-12-10 12:55:00,
2017-12-10 07:00:00,20.6,16.3,29.89,SW,229,6.0,7.0,83,0.00,,---,0.00,VWS V15.00,2017-12-10 13:00:00,
2017-12-10 07:10:00,20.7,16.4,29.89,SW,219,7.0,13.0,83,0.00,,---,0.00,VWS V15.00,2017-12-10 13:10:00,
2017-12-10 07:15:00,20.8,16.5,29.88,SW,236,7.0,10.0,83,0.00,,---,0.00,VWS V15.00,2017-12-10 13:15:00,
2017-12-10 07:25:00,20.8,16.5,29.88,WSW,239,8.0,14.0,83,0.00,,---,0.00,VWS V15.00,2017-12-10 13:25:00,
2017-12-10 07:30:00,20.9,16.6,29.88,WSW,254,6.0,7.0,83,0.00,,---,0.00,VWS V15.00,2017-12-10 13:30:00,
2017-12-10 07:35:00,20.9,16.6,29.88,WSW,246,6.0,9.0,83,0.00,,---,0.00,VWS V15.00,2017-12-10 13:35:00,
2017-12-10 07:45:00,21.2,16.9,29.89,WSW,256,7.0,10.0,83,0.00,,---,0.00,VWS V15.00,2017-12-10 13:45:00,
2017-12-10 07:50:00,21.3,17.0,29.88,WSW,250,6.0,9.0,83,0.00,,---,0.00,VWS V15.00,2017-12-10 13:50:00,
2017-12-10 07:55:00,21.4,17.0,29.88,West,277,6.0,12.0,83,0.00,,---,0.00,VWS V15.00,2017-12-10 13:55:00,
2017-12-10 08:00:00,21.5,17.1,29.89,West,261,7.0,11.0,83,0.00,,---,0.00,VWS V15.00,2017-12-10 14:00:00,
2017-12-10 08:05:00,21.6,17.2,29.89,West,263,5.0,5.0,83,0.00,,---,0.00,VWS V15.00,2017-12-10 14:05:00,
2017-12-10 08:10:00,21.6,17.2,29.89,WSW,252,3.0,6.0,83,0.00,,---,0.00,VWS V15.00,2017-12-10 14:10:00,
2017-12-10 08:15:00,21.7,17.3,29.89,WSW,243,7.0,8.0,83,0.00,,---,0.00,VWS V15.00,2017-12-10 14:15:00,
2017-12-10 08:20:00,21.8,17.4,29.89,WSW,246,8.0,10.0,83,0.00,,---,0.00,VWS V15.00,2017-12-10 14:20:00,
2017-12-10 08:21:00,21.8,17.4,29.89,WSW,253,5.0,8.0,83,0.00,,---,0.00,VWS V15.00,2017-12-10 14:21:00,
2017-12-10 08:26:00,21.8,17.4,29.89,West,259,0.0,7.0,83,0.00,,---,0.00,VWS V15.00,2017-12-10 14:26:00,
2017-12-10 08:31:00,21.9,17.5,29.89,WSW,252,6.0,6.0,83,0.00,,---,0.00,VWS V15.00,2017-12-10 14:31:00,
2017-12-10 08:36:00,22.0,17.6,29.89,WSW,244,7.0,7.0,83,0.00,,---,0.00,VWS V15.00,2017-12-10 14:36:00,
2017-12-10 08:41:00,22.0,17.6,29.90,WSW,252,6.0,6.0,83,0.00,,---,0.00,VWS V15.00,2017-12-10 14:41:00,
2017-12-10 08:46:00,22.2,17.8,29.89,SW,236,1.0,9.0,83,0.00,,---,0.00,VWS V15.00,2017-12-10 14:46:00,
2017-12-10 08:51:00,22.2,17.8,29.89,West,278,4.0,6.0,83,0.00,,---,0.00,VWS V15.00,2017-12-10 14:51:00,
2017-12-10 08:56:00,22.3,17.9,29.89,West,276,5.0,9.0,83,0.00,,---,0.00,VWS V15.00,2017-12-10 14:56:00,
2017-12-10 09:01:00,22.4,18.0,29.89,West,277,1.0,10.0,83,0.00,,---,0.00,VWS V15.00,2017-12-10 15:01:00,
2017-12-10 09:06:00,22.5,18.1,29.89,West,267,9.0,9.0,83,0.00,,---,0.00,VWS V15.00,2017-12-10 15:06:00,
2017-12-10 09:11:00,22.5,18.1,29.89,WSW,257,0.0,8.0,83,0.00,,---,0.00,VWS V15.00,2017-12-10 15:11:00,
2017-12-10 09:16:00,22.6,18.2,29.89,West,263,4.0,6.0,83,0.00,,---,0.00,VWS V15.00,2017-12-10 15:16:00,
2017-12-10 09:21:00,22.6,18.2,29.89,WSW,252,8.0,8.0,83,0.00,,---,0.00,VWS V15.00,2017-12-10 15:21:00,
2017-12-10 09:26:00,22.7,18.3,29.89,West,267,5.0,8.0,83,0.00,,---,0.00,VWS V15.00,2017-12-10 15:26:00,
2017-12-10 09:31:00,22.7,18.6,29.89,West,279,5.0,9.0,84,0.00,,---,0.00,VWS V15.00,2017-12-10 15:31:00,
2017-12-10 09:36:00,22.9,18.8,29.90,West,271,1.0,5.0,84,0.00,,---,0.00,VWS V15.00,2017-12-10 15:36:00,
2017-12-10 09:46:00,23.0,18.9,29.90,West,277,0.0,0.0,84,0.00,,---,0.00,VWS V15.00,2017-12-10 15:46:00,
2017-12-10 09:51:00,23.1,19.0,29.90,WNW,296,7.0,8.0,84,0.00,,---,0.00,VWS V15.00,2017-12-10 15:51:00,
2017-12-10 09:56:00,23.1,19.0,29.90,West,265,2.0,7.0,84,0.00,,---,0.00,VWS V15.00,2017-12-10 15:56:00,
2017-12-10 09:57:00,23.1,19.0,29.90,West,265,0.0,0.0,84,0.00,,---,0.00,VWS V15.00,2017-12-10 15:57:00,
2017-12-10 10:02:00,23.2,19.1,29.91,WNW,286,3.0,4.0,84,0.00,,---,0.00,VWS V15.00,2017-12-10 16:02:00,
2017-12-10 10:12:00,23.4,19.3,29.90,West,267,1.0,5.0,84,0.00,,---,0.00,VWS V15.00,2017-12-10 16:12:00,
2017-12-10 10:17:00,23.5,19.4,29.90,WNW,288,5.0,5.0,84,0.00,,---,0.00,VWS V15.00,2017-12-10 16:17:00,
2017-12-10 10:32:00,23.8,19.7,29.90,WNW,298,0.0,0.0,84,0.00,,---,0.00,VWS V15.00,2017-12-10 16:32:00,
2017-12-10 10:37:00,24.0,19.9,29.90,West,269,1.0,1.0,84,0.00,,---,0.00,VWS V15.00,2017-12-10 16:37:00,
2017-12-10 10:42:00,24.2,20.1,29.90,WNW,284,0.0,0.0,84,0.00,,---,0.00,VWS V15.00,2017-12-10 16:42:00,
2017-12-10 10:52:00,24.4,20.3,29.91,West,271,1.0,2.0,84,0.00,,---,0.00,VWS V15.00,2017-12-10 16:52:00,
2017-12-10 10:57:00,24.5,20.4,29.91,West,279,5.0,5.0,84,0.00,,---,0.00,VWS V15.00,2017-12-10 16:57:00,
2017-12-10 11:02:00,24.7,20.6,29.91,WNW,292,4.0,4.0,84,0.00,,---,0.00,VWS V15.00,2017-12-10 17:02:00,
2017-12-10 11:07:00,24.8,20.4,29.91,West,267,1.0,1.0,83,0.00,,---,0.00,VWS V15.00,2017-12-10 17:07:00,
2017-12-10 11:17:00,24.9,20.5,29.91,WNW,288,1.0,6.0,83,0.00,,---,0.00,VWS V15.00,2017-12-10 17:17:00,
2017-12-10 11:22:00,25.0,20.6,29.91,WNW,295,1.0,7.0,83,0.00,,---,0.00,VWS V15.00,2017-12-10 17:22:00,
2017-12-10 11:27:00,25.2,20.5,29.90,WNW,289,2.0,8.0,82,0.00,,---,0.00,VWS V15.00,2017-12-10 17:27:00,
2017-12-10 11:32:00,25.2,20.5,29.90,NW,315,7.0,8.0,82,0.00,,---,0.00,VWS V15.00,2017-12-10 17:32:00,
2017-12-10 11:37:00,25.2,20.5,29.90,NW,311,7.0,8.0,82,0.00,,---,0.00,VWS V15.00,2017-12-10 17:37:00,
2017-12-10 11:47:00,25.2,20.2,29.91,NNW,335,7.0,7.0,81,0.00,,---,0.00,VWS V15.00,2017-12-10 17:47:00,
2017-12-10 11:52:00,25.1,20.1,29.91,WNW,298,2.0,5.0,81,0.00,,---,0.00,VWS V15.00,2017-12-10 17:52:00,
2017-12-10 12:02:00,25.0,20.0,29.91,NW,311,6.0,6.0,81,0.00,,---,0.00,VWS V15.00,2017-12-10 18:02:00,
2017-12-10 12:07:00,25.1,20.4,29.91,NW,323,10.0,10.0,82,0.00,,---,0.00,VWS V15.00,2017-12-10 18:07:00,
2017-12-10 12:12:00,25.0,20.0,29.91,West,267,3.0,7.0,81,0.00,,---,0.00,VWS V15.00,2017-12-10 18:12:00,
2017-12-10 12:17:00,24.9,19.9,29.92,NNW,340,5.0,11.0,81,0.00,,---,0.00,VWS V15.00,2017-12-10 18:17:00,
2017-12-10 12:22:00,24.8,19.8,29.92,NW,320,8.0,8.0,81,0.00,,---,0.00,VWS V15.00,2017-12-10 18:22:00,
2017-12-10 12:27:00,24.9,20.2,29.92,WNW,285,11.0,12.0,82,0.00,,---,0.00,VWS V15.00,2017-12-10 18:27:00,
2017-12-10 12:32:00,24.8,20.1,29.93,NW,320,7.0,7.0,82,0.00,,---,0.00,VWS V15.00,2017-12-10 18:32:00,
2017-12-10 12:42:00,24.7,19.7,29.93,NNW,341,8.0,10.0,81,0.00,,---,0.00,VWS V15.00,2017-12-10 18:42:00,
2017-12-10 12:52:00,24.8,20.1,29.93,NNW,329,11.0,11.0,82,0.00,,---,0.00,VWS V15.00,2017-12-10 18:52:00,
2017-12-10 12:57:00,24.9,19.9,29.93,NNE,13,8.0,9.0,81,0.00,,---,0.00,VWS V15.00,2017-12-10 18:57:00,
2017-12-10 13:02:00,24.9,19.9,29.93,NNW,342,12.0,12.0,81,0.00,,---,0.00,VWS V15.00,2017-12-10 19:02:00,
2017-12-10 13:07:00,25.0,20.0,29.93,NNW,336,9.0,11.0,81,0.00,,---,0.00,VWS V15.00,2017-12-10 19:07:00,
2017-12-10 13:12:00,25.2,20.2,29.94,NW,320,3.0,5.0,81,0.00,,---,0.00,VWS V15.00,2017-12-10 19:12:00,
2017-12-10 13:22:00,25.2,19.9,29.94,NNW,327,8.0,8.0,80,0.00,,---,0.00,VWS V15.00,2017-12-10 19:22:00,
2017-12-10 13:27:00,25.3,20.3,29.94,NNW,327,4.0,12.0,81,0.00,,---,0.00,VWS V15.00,2017-12-10 19:27:00,
2017-12-10 13:42:00,25.3,19.7,29.94,NNW,327,9.0,10.0,79,0.00,,---,0.00,VWS V15.00,2017-12-10 19:42:00,
2017-12-10 13:47:00,25.3,20.0,29.94,NNW,331,9.0,9.0,80,0.00,,---,0.00,VWS V15.00,2017-12-10 19:47:00,
2017-12-10 13:52:00,25.4,20.1,29.95,NW,308,9.0,10.0,80,0.00,,---,0.00,VWS V15.00,2017-12-10 19:52:00,
2017-12-10 13:57:00,25.4,20.1,29.95,NNW,327,9.0,10.0,80,0.00,,---,0.00,VWS V15.00,2017-12-10 19:57:00,
2017-12-10 14:02:00,25.3,20.0,29.95,NW,316,12.0,12.0,80,0.00,,---,0.00,VWS V15.00,2017-12-10 20:02:00,
2017-12-10 14:07:00,25.3,20.0,29.95,NW,304,5.0,5.0,80,0.00,,---,0.00,VWS V15.00,2017-12-10 20:07:00,
2017-12-10 14:12:00,25.3,20.0,29.95,NW,323,7.0,8.0,80,0.00,,---,0.00,VWS V15.00,2017-12-10 20:12:00,
2017-12-10 14:17:00,25.4,20.1,29.95,WNW,294,3.0,5.0,80,0.00,,---,0.00,VWS V15.00,2017-12-10 20:17:00,
2017-12-10 14:22:00,25.4,20.4,29.95,NNW,337,7.0,11.0,81,0.00,,---,0.00,VWS V15.00,2017-12-10 20:22:00,
2017-12-10 14:32:00,25.6,20.6,29.95,NNW,336,5.0,8.0,81,0.00,,---,0.00,VWS V15.00,2017-12-10 20:32:00,
2017-12-10 14:37:00,25.6,20.6,29.95,NW,320,0.0,5.0,81,0.00,,---,0.00,VWS V15.00,2017-12-10 20:37:00,
2017-12-10 14:42:00,25.6,20.6,29.96,NNW,327,5.0,8.0,81,0.00,,---,0.00,VWS V15.00,2017-12-10 20:42:00,
2017-12-10 14:47:00,25.8,20.8,29.97,WNW,295,9.0,9.0,81,0.00,,---,0.00,VWS V15.00,2017-12-10 20:47:00,
2017-12-10 14:52:00,25.6,20.6,29.97,NW,324,9.0,9.0,81,0.00,,---,0.00,VWS V15.00,2017-12-10 20:52:00,
2017-12-10 14:57:00,25.5,20.5,29.97,WNW,301,6.0,7.0,81,0.00,,---,0.00,VWS V15.00,2017-12-10 20:57:00,
2017-12-10 15:12:00,25.3,20.3,29.98,NNW,329,1.0,7.0,81,0.00,,---,0.00,VWS V15.00,2017-12-10 21:12:00,
2017-12-10 15:17:00,25.3,20.3,29.98,NW,319,6.0,6.0,81,0.00,,---,0.00,VWS V15.00,2017-12-10 21:17:00,
2017-12-10 15:22:00,25.3,20.3,29.98,NNW,342,12.0,12.0,81,0.00,,---,0.00,VWS V15.00,2017-12-10 21:22:00,
2017-12-10 15:27:00,25.2,20.5,29.99,North,360,8.0,9.0,82,0.00,,---,0.00,VWS V15.00,2017-12-10 21:27:00,
2017-12-10 15:32:00,25.2,20.2,29.99,NNW,329,5.0,7.0,81,0.00,,---,0.00,VWS V15.00,2017-12-10 21:32:00,
2017-12-10 15:37:00,25.2,20.5,29.99,NW,324,0.0,0.0,82,0.00,,---,0.00,VWS V15.00,2017-12-10 21:37:00,
2017-12-10 15:42:00,25.2,20.5,30.00,NNW,334,5.0,6.0,82,0.00,,---,0.00,VWS V15.00,2017-12-10 21:42:00,
2017-12-10 15:47:00,25.2,20.5,30.00,NNW,327,8.0,8.0,82,0.00,,---,0.00,VWS V15.00,2017-12-10 21:47:00,
2017-12-10 15:52:00,25.1,20.1,30.00,NNW,342,7.0,10.0,81,0.00,,---,0.00,VWS V15.00,2017-12-10 21:52:00,
2017-12-10 15:57:00,25.1,20.1,30.00,NW,319,4.0,4.0,81,0.00,,---,0.00,VWS V15.00,2017-12-10 21:57:00,
2017-12-10 16:07:00,25.0,20.0,30.01,NNW,331,5.0,7.0,81,0.00,,---,0.00,VWS V15.00,2017-12-10 22:07:00,
2017-12-10 16:12:00,24.9,19.9,30.01,NW,314,0.0,4.0,81,0.00,,---,0.00,VWS V15.00,2017-12-10 22:12:00,
2017-12-10 16:17:00,24.9,19.9,30.01,NW,325,5.0,10.0,81,0.00,,---,0.00,VWS V15.00,2017-12-10 22:17:00,
2017-12-10 16:22:00,24.9,19.9,30.02,NW,320,5.0,6.0,81,0.00,,---,0.00,VWS V15.00,2017-12-10 22:22:00,
2017-12-10 16:37:00,24.8,19.8,30.03,NW,323,5.0,7.0,81,0.00,,---,0.00,VWS V15.00,2017-12-10 22:37:00,
2017-12-10 16:47:00,24.8,19.8,30.03,NW,319,7.0,7.0,81,0.00,,---,0.00,VWS V15.00,2017-12-10 22:47:00,
2017-12-10 16:52:00,24.8,19.8,30.03,NNW,331,8.0,8.0,81,0.00,,---,0.00,VWS V15.00,2017-12-10 22:52:00,
2017-12-10 17:02:00,24.8,19.8,30.04,NW,313,1.0,2.0,81,0.00,,---,0.00,VWS V15.00,2017-12-10 23:02:00,
2017-12-10 17:17:00,24.8,20.1,30.05,WNW,285,6.0,8.0,82,0.00,,---,0.00,VWS V15.00,2017-12-10 23:17:00,
2017-12-10 17:27:00,24.8,20.1,30.05,NW,317,0.0,0.0,82,0.00,,---,0.00,VWS V15.00,2017-12-10 23:27:00,
2017-12-10 17:32:00,24.7,20.0,30.05,WNW,298,0.0,1.0,82,0.00,,---,0.00,VWS V15.00,2017-12-10 23:32:00,
2017-12-10 17:37:00,24.7,20.0,30.05,NW,304,5.0,8.0,82,0.00,,---,0.00,VWS V15.00,2017-12-10 23:37:00,
2017-12-10 17:42:00,24.7,20.0,30.05,WNW,296,0.0,0.0,82,0.00,,---,0.00,VWS V15.00,2017-12-10 23:42:00,
2017-12-10 17:47:00,24.8,20.1,30.05,NW,313,0.0,0.0,82,0.00,,---,0.00,VWS V15.00,2017-12-10 23:47:00,
2017-12-10 17:52:00,24.7,20.0,30.05,WNW,294,0.0,1.0,82,0.00,,---,0.00,VWS V15.00,2017-12-10 23:52:00,
2017-12-10 17:57:00,24.8,20.1,30.06,NW,305,0.0,6.0,82,0.00,,---,0.00,VWS V15.00,2017-12-10 23:57:00,
2017-12-10 18:07:00,24.7,20.0,30.06,WNW,302,0.0,1.0,82,0.00,,---,0.00,VWS V15.00,2017-12-11 00:07:00,
2017-12-10 18:12:00,24.7,20.0,30.06,WNW,294,0.0,3.0,82,0.00,,---,0.00,VWS V15.00,2017-12-11 00:12:00,
2017-12-10 18:17:00,24.7,20.3,30.06,West,280,3.0,6.0,83,0.00,,---,0.00,VWS V15.00,2017-12-11 00:17:00,
2017-12-10 18:22:00,24.8,20.4,30.06,West,280,0.0,0.0,83,0.00,,---,0.00,VWS V15.00,2017-12-11 00:22:00,
2017-12-10 18:27:00,24.8,20.4,30.06,West,280,0.0,0.0,83,0.00,,---,0.00,VWS V15.00,2017-12-11 00:27:00,
2017-12-10 18:32:00,24.8,20.4,30.06,West,280,3.0,6.0,83,0.00,,---,0.00,VWS V15.00,2017-12-11 00:32:00,
2017-12-10 18:37:00,24.8,20.4,30.06,West,275,0.0,0.0,83,0.00,,---,0.00,VWS V15.00,2017-12-11 00:37:00,